KCRW Airport Diagram

We have created a template for each of the higher traffic airports in the vZID airspace. They include KCMH, KCRW, KCVG, KDAY, KIND, KLEX and KSDF. You wil find usefull information including the airport diagram, weather, and specific airport procedures.

KCRW Weather

[Source: ADDS]
METAR
KCRW 180354Z 33004KT 10SM CLR 08/02 A3038 RMK AO2 SLP286 T00830017 =
KCRW 172320Z 1800/1824 30005KT P6SM FEW050 FM180200 32006KT P6SM SKC FM180700 VRB03KT P6SM SKC
TAF
KCRW 172320Z 1800/1824 30005KT P6SM FEW050 FM180200 32006KT P6SM SKC FM180700 VRB03KT P6SM SKC =

KCRW Operations

Calm wind runway up to 10kts: Rw 23

 

JSN Epic template designed by JoomlaShine.com